createdAt,value
2017-09-05T00:02:12.074Z,78.93
2017-09-05T00:04:38.454Z,78.54
2017-09-05T00:07:04.815Z,79.68
2017-09-05T00:09:46.130Z,79.00
2017-09-05T00:12:18.538Z,78.98
2017-09-05T00:14:50.774Z,79.18
2017-09-05T00:17:17.135Z,79.25
2017-09-05T00:19:44.694Z,79.12
2017-09-05T00:22:15.101Z,78.24
2017-09-05T00:24:41.435Z,78.90
2017-09-05T00:27:07.978Z,78.98
2017-09-05T00:29:34.343Z,78.69
2017-09-05T00:32:00.719Z,79.27
2017-09-05T00:34:27.151Z,79.11
2017-09-05T00:36:53.450Z,79.33
2017-09-05T00:39:20.002Z,79.23
2017-09-05T00:41:46.409Z,80.43
2017-09-05T00:44:12.747Z,79.58
2017-09-05T00:46:39.094Z,82.41
2017-09-05T00:49:05.437Z,82.47
2017-09-05T00:51:31.867Z,80.34
2017-09-05T00:53:58.262Z,80.19
2017-09-05T00:56:24.727Z,80.61
2017-09-05T00:58:51.138Z,80.62
2017-09-05T01:01:17.631Z,80.29
2017-09-05T01:03:44.003Z,79.43
2017-09-05T01:06:10.387Z,79.80
2017-09-05T01:08:36.947Z,79.48
2017-09-05T01:11:03.382Z,80.05
2017-09-05T01:13:29.827Z,79.44
2017-09-05T01:15:56.193Z,79.39
2017-09-05T01:18:22.658Z,79.45
2017-09-05T01:20:49.150Z,79.62
2017-09-05T01:23:15.506Z,80.00
2017-09-05T01:25:42.938Z,79.98
2017-09-05T01:28:09.352Z,79.72
2017-09-05T01:30:35.771Z,80.07
2017-09-05T01:33:02.185Z,79.31
2017-09-05T01:35:28.664Z,80.28
2017-09-05T01:37:55.089Z,80.01
2017-09-05T01:40:21.514Z,79.59
2017-09-05T01:42:47.838Z,79.19
2017-09-05T01:45:14.191Z,77.83
2017-09-05T01:47:40.622Z,77.21
2017-09-05T01:50:07.061Z,77.08
2017-09-05T01:52:33.551Z,77.32
2017-09-05T01:54:59.974Z,76.42
2017-09-05T01:57:27.314Z,76.18
2017-09-05T01:59:53.680Z,77.01
2017-09-05T02:02:20.063Z,76.62
2017-09-05T02:04:46.403Z,76.93
2017-09-05T02:07:12.773Z,77.21
2017-09-05T02:09:39.201Z,77.25
2017-09-05T02:12:05.515Z,77.47
2017-09-05T02:14:31.863Z,77.65
2017-09-05T02:16:58.224Z,77.96
2017-09-05T02:19:24.694Z,78.75
2017-09-05T02:21:51.075Z,78.14
2017-09-05T02:24:17.463Z,78.03
2017-09-05T02:26:44.822Z,78.67
2017-09-05T02:29:11.230Z,79.54
2017-09-05T02:31:37.626Z,79.01
2017-09-05T02:34:04.020Z,78.98
2017-09-05T02:36:30.423Z,78.82
2017-09-05T02:38:56.770Z,79.28
2017-09-05T02:41:23.263Z,79.46
2017-09-05T02:43:49.587Z,79.45
2017-09-05T02:46:15.992Z,79.81
2017-09-05T02:48:42.417Z,80.02
2017-09-05T02:51:08.887Z,79.98
2017-09-05T02:53:35.312Z,79.93
2017-09-05T02:56:01.754Z,80.33
2017-09-05T02:58:28.172Z,79.76
2017-09-05T03:00:54.507Z,80.05
2017-09-05T03:03:20.873Z,79.95
2017-09-05T03:05:47.278Z,79.99
2017-09-05T03:08:13.806Z,79.92
2017-09-05T03:10:40.195Z,80.14
2017-09-05T03:13:06.595Z,79.97
2017-09-05T03:15:33.002Z,79.83
2017-09-05T03:17:59.381Z,80.55
2017-09-05T03:20:25.782Z,80.75
2017-09-05T03:22:52.163Z,82.52
2017-09-05T03:25:18.586Z,82.04
2017-09-05T03:27:44.961Z,81.54
2017-09-05T03:30:11.368Z,81.63
2017-09-05T03:32:37.915Z,81.95
2017-09-05T03:35:04.530Z,81.82
2017-09-05T03:37:30.878Z,81.72
2017-09-05T03:39:57.218Z,81.84
2017-09-05T03:42:23.574Z,82.04
2017-09-05T03:44:49.908Z,81.63
2017-09-05T03:47:16.263Z,81.51
2017-09-05T03:49:42.682Z,81.10
2017-09-05T03:52:09.064Z,81.23
2017-09-05T03:54:35.484Z,82.03
2017-09-05T03:57:01.928Z,82.02
2017-09-05T03:59:28.332Z,81.76
2017-09-05T04:04:14.163Z,81.06
2017-09-05T04:06:40.572Z,80.53
2017-09-05T04:09:12.614Z,80.15
2017-09-05T04:11:39.280Z,80.41
2017-09-05T04:14:05.642Z,80.49
2017-09-05T04:16:31.960Z,80.61
2017-09-05T04:18:58.506Z,80.75
2017-09-05T04:21:24.890Z,80.68
2017-09-05T04:23:51.291Z,80.82
2017-09-05T04:26:17.791Z,81.09
2017-09-05T04:28:44.162Z,80.98
2017-09-05T04:31:10.517Z,81.32
2017-09-05T04:33:36.935Z,81.13
2017-09-05T04:36:03.311Z,81.35
2017-09-05T04:38:29.772Z,80.92
2017-09-05T04:40:56.170Z,81.32
2017-09-05T04:43:22.586Z,81.46
2017-09-05T04:45:48.942Z,81.69
2017-09-05T04:48:15.386Z,81.76
2017-09-05T04:50:41.741Z,81.69
2017-09-05T04:53:09.122Z,82.25
2017-09-05T04:55:35.497Z,81.60
2017-09-05T04:58:01.878Z,81.90
2017-09-05T05:00:28.472Z,81.74
2017-09-05T05:02:54.816Z,81.64
2017-09-05T05:05:21.153Z,81.19
2017-09-05T05:07:47.527Z,82.04
2017-09-05T05:10:13.971Z,81.21
2017-09-05T05:12:41.066Z,81.06
2017-09-05T05:15:07.479Z,80.59
2017-09-05T05:17:33.871Z,80.20
2017-09-05T05:20:00.214Z,80.02
2017-09-05T05:22:26.699Z,80.01
2017-09-05T05:24:53.063Z,81.00
2017-09-05T05:27:19.434Z,80.64
2017-09-05T05:29:45.840Z,80.04
2017-09-05T05:32:12.190Z,80.08
2017-09-05T05:34:38.724Z,79.96
2017-09-05T05:37:05.133Z,79.82
2017-09-05T05:39:31.704Z,80.01
2017-09-05T05:41:58.111Z,79.96
2017-09-05T05:44:24.442Z,79.69
2017-09-05T05:46:50.769Z,79.90
2017-09-05T05:49:17.822Z,79.94
2017-09-05T05:51:44.234Z,79.75
2017-09-05T05:54:10.687Z,79.81
2017-09-05T05:56:37.097Z,79.65
2017-09-05T05:59:03.479Z,79.71
2017-09-05T06:01:30.578Z,79.31
2017-09-05T06:03:57.042Z,79.40
2017-09-05T06:06:23.541Z,79.79
2017-09-05T06:08:49.919Z,79.36
2017-09-05T06:11:16.358Z,79.29
2017-09-05T06:13:42.788Z,79.50
2017-09-05T06:16:09.120Z,79.89
2017-09-05T06:18:35.511Z,79.55
2017-09-05T06:21:01.838Z,79.32
2017-09-05T06:23:28.243Z,79.06
2017-09-05T06:25:54.728Z,79.79
2017-09-05T06:28:21.138Z,78.92
2017-09-05T06:30:47.589Z,79.30
2017-09-05T06:33:13.926Z,79.98
2017-09-05T06:35:40.326Z,81.11
2017-09-05T06:38:06.700Z,82.04
2017-09-05T06:40:33.006Z,81.59
2017-09-05T06:42:59.552Z,83.43
2017-09-05T06:45:26.023Z,84.21
2017-09-05T06:47:52.410Z,83.96
2017-09-05T06:50:18.799Z,84.89
2017-09-05T06:52:45.264Z,85.07
2017-09-05T06:55:11.610Z,85.24
2017-09-05T06:57:39.950Z,86.07
2017-09-05T07:00:06.539Z,86.23
2017-09-05T07:02:32.907Z,85.87
2017-09-05T07:05:01.302Z,86.37
2017-09-05T07:07:27.708Z,85.79
2017-09-05T07:09:54.106Z,86.68
2017-09-05T07:12:21.015Z,86.39
2017-09-05T07:14:47.415Z,87.29
2017-09-05T07:17:13.830Z,87.78
2017-09-05T07:19:40.246Z,86.94
2017-09-05T07:22:06.698Z,87.55
2017-09-05T07:24:33.106Z,87.59
2017-09-05T07:26:59.463Z,87.42
2017-09-05T07:29:25.770Z,88.80
2017-09-05T07:31:52.322Z,88.51
2017-09-05T07:34:18.726Z,87.67
2017-09-05T07:36:45.130Z,88.71
2017-09-05T07:39:11.527Z,88.46
2017-09-05T07:41:37.867Z,88.69
2017-09-05T07:44:04.226Z,88.78
2017-09-05T07:46:30.835Z,87.82
2017-09-05T07:48:57.191Z,88.07
2017-09-05T07:51:23.518Z,92.36
2017-09-05T07:53:49.864Z,88.61
2017-09-05T07:56:16.216Z,87.36
2017-09-05T07:58:42.570Z,88.18
2017-09-05T08:01:10.086Z,89.14
2017-09-05T08:03:36.631Z,88.11
2017-09-05T08:06:06.648Z,86.03
2017-09-05T08:08:33.441Z,87.13
2017-09-05T08:10:59.850Z,85.74
2017-09-05T08:13:26.203Z,87.49
2017-09-05T08:15:52.646Z,87.45
2017-09-05T08:18:19.100Z,86.48
2017-09-05T08:20:45.510Z,86.98
2017-09-05T08:23:11.943Z,85.62
2017-09-05T08:25:38.460Z,86.72
2017-09-05T08:28:05.006Z,86.26
2017-09-05T08:30:31.399Z,86.15
2017-09-05T08:32:57.852Z,86.73
2017-09-05T08:35:24.171Z,85.99
2017-09-05T08:37:50.574Z,85.70
2017-09-05T08:40:17.017Z,86.54
2017-09-05T08:42:43.459Z,84.26
2017-09-05T08:45:09.994Z,84.51
2017-09-05T08:47:36.449Z,81.55
2017-09-05T08:50:02.895Z,80.65
2017-09-05T08:52:29.294Z,81.83
2017-09-05T08:54:55.646Z,82.54
2017-09-05T08:57:22.123Z,81.87
2017-09-05T08:59:48.534Z,81.43
2017-09-05T09:02:20.099Z,81.20
2017-09-05T09:04:46.506Z,79.94
2017-09-05T09:07:12.875Z,76.58
2017-09-05T09:09:39.294Z,75.22
2017-09-05T09:12:05.821Z,74.72
2017-09-05T09:14:34.175Z,69.99
2017-09-05T09:17:00.603Z,70.88
2017-09-05T09:19:26.991Z,66.84
2017-09-05T09:21:53.374Z,67.33
2017-09-05T09:24:19.961Z,63.86
2017-09-05T09:26:46.303Z,64.07
2017-09-05T09:29:12.638Z,63.38
2017-09-05T09:31:40.039Z,65.32
2017-09-05T09:34:06.463Z,65.13
2017-09-05T09:36:32.950Z,63.52
2017-09-05T09:38:59.329Z,63.97
2017-09-05T09:41:25.629Z,63.21
2017-09-05T09:43:52.300Z,66.20
2017-09-05T09:46:18.679Z,64.24
2017-09-05T09:48:45.123Z,64.64
2017-09-05T09:51:11.426Z,64.46
2017-09-05T09:53:37.936Z,65.85
2017-09-05T09:56:04.250Z,64.80
2017-09-05T09:58:30.626Z,65.07
2017-09-05T10:03:34.398Z,60.73
2017-09-05T10:06:06.147Z,61.81
2017-09-05T10:08:32.569Z,60.49
2017-09-05T10:10:59.010Z,62.09
2017-09-05T10:13:25.332Z,62.38
2017-09-05T10:15:52.744Z,63.31
2017-09-05T10:18:19.241Z,61.68
2017-09-05T10:20:45.677Z,63.62
2017-09-05T10:23:11.999Z,63.04
2017-09-05T10:25:38.399Z,61.56
2017-09-05T10:28:04.786Z,61.91
2017-09-05T10:30:31.102Z,59.16
2017-09-05T10:32:57.672Z,62.50
2017-09-05T10:35:23.990Z,60.07
2017-09-05T10:37:50.344Z,57.88
2017-09-05T10:40:16.780Z,58.61
2017-09-05T10:42:43.110Z,58.56
2017-09-05T10:45:09.845Z,58.10
2017-09-05T10:47:42.964Z,52.74
2017-09-05T10:50:09.609Z,56.02
2017-09-05T10:52:36.022Z,55.36
2017-09-05T10:55:03.391Z,55.49
2017-09-05T10:57:29.778Z,52.88
2017-09-05T10:59:56.105Z,51.57
2017-09-05T11:02:22.495Z,50.05
2017-09-05T11:04:48.861Z,49.64
2017-09-05T11:07:15.310Z,49.53
2017-09-05T11:09:41.708Z,49.65
2017-09-05T11:12:08.073Z,50.50
2017-09-05T11:14:34.504Z,53.10
2017-09-05T11:17:00.936Z,49.45
2017-09-05T11:19:27.431Z,47.84
2017-09-05T11:21:53.824Z,45.59
2017-09-05T11:24:20.235Z,43.61
2017-09-05T11:26:46.885Z,42.33
2017-09-05T11:29:13.266Z,39.50
2017-09-05T11:31:39.619Z,38.67
2017-09-05T11:34:06.082Z,41.02
2017-09-05T11:36:32.659Z,42.86
2017-09-05T11:38:59.102Z,40.71
2017-09-05T11:41:25.533Z,40.64
2017-09-05T11:43:51.856Z,42.31
2017-09-05T11:46:18.215Z,43.29
2017-09-05T11:48:44.584Z,42.62
2017-09-05T11:51:11.022Z,46.29
2017-09-05T11:53:37.364Z,47.24
2017-09-05T11:56:03.795Z,48.25
2017-09-05T11:58:30.215Z,47.87
2017-09-05T12:00:56.658Z,44.04
2017-09-05T12:03:23.097Z,40.76
2017-09-05T12:05:57.850Z,41.17
2017-09-05T12:08:25.255Z,41.87
2017-09-05T12:10:51.592Z,44.97
2017-09-05T12:13:17.926Z,46.55
2017-09-05T12:15:44.262Z,46.46
2017-09-05T12:18:10.655Z,45.55
2017-09-05T12:20:37.007Z,45.34
2017-09-05T12:23:03.459Z,47.55
2017-09-05T12:25:30.039Z,48.32
2017-09-05T12:27:56.533Z,47.45
2017-09-05T12:30:23.739Z,47.78
2017-09-05T12:32:50.259Z,47.37
2017-09-05T12:35:16.618Z,48.50
2017-09-05T12:37:43.095Z,47.78
2017-09-05T12:40:09.472Z,46.38
2017-09-05T12:42:35.887Z,45.34
2017-09-05T12:45:02.267Z,44.44
2017-09-05T12:47:28.710Z,45.12
2017-09-05T12:49:55.187Z,47.41
2017-09-05T12:52:21.634Z,48.60
2017-09-05T12:54:47.990Z,48.43
2017-09-05T12:57:14.396Z,50.60
2017-09-05T12:59:40.807Z,50.65
2017-09-05T13:02:07.131Z,49.46
2017-09-05T13:04:33.601Z,48.35
2017-09-05T13:07:00.012Z,46.33
2017-09-05T13:09:26.536Z,45.78
2017-09-05T13:11:52.935Z,46.21
2017-09-05T13:14:19.331Z,42.72
2017-09-05T13:16:45.716Z,40.48
2017-09-05T13:19:12.096Z,42.46
2017-09-05T13:21:38.420Z,43.64
2017-09-05T13:24:04.875Z,42.18
2017-09-05T13:26:31.215Z,44.15
2017-09-05T13:28:57.687Z,47.19
2017-09-05T13:31:24.131Z,48.09
2017-09-05T13:33:51.460Z,48.83
2017-09-05T13:36:17.820Z,50.25
2017-09-05T13:38:44.250Z,49.94
2017-09-05T13:41:10.691Z,47.12
2017-09-05T13:43:37.109Z,41.58
2017-09-05T13:46:03.459Z,41.59
2017-09-05T13:48:29.924Z,42.15
2017-09-05T13:50:56.298Z,40.55
2017-09-05T13:53:22.629Z,41.64
2017-09-05T13:55:49.007Z,42.24
2017-09-05T13:58:15.498Z,42.14
2017-09-05T14:00:42.007Z,41.33
2017-09-05T14:03:08.410Z,39.59
2017-09-05T14:05:40.827Z,39.87
2017-09-05T14:08:07.571Z,41.75
2017-09-05T14:10:34.007Z,43.13
2017-09-05T14:13:00.404Z,41.63
2017-09-05T14:15:26.753Z,39.56
2017-09-05T14:17:53.391Z,37.95
2017-09-05T14:20:19.843Z,37.41
2017-09-05T14:22:46.293Z,37.79
2017-09-05T14:25:12.898Z,37.53
2017-09-05T14:27:39.247Z,35.94
2017-09-05T14:30:05.711Z,35.33
2017-09-05T14:32:32.134Z,37.49
2017-09-05T14:34:58.619Z,39.36
2017-09-05T14:37:32.435Z,40.62
2017-09-05T14:39:58.962Z,42.97
2017-09-05T14:42:25.362Z,44.86
2017-09-05T14:44:51.706Z,48.00
2017-09-05T14:47:18.179Z,47.04
2017-09-05T14:49:45.455Z,47.54
2017-09-05T14:52:11.835Z,47.09
2017-09-05T14:54:38.235Z,47.86
2017-09-05T14:57:04.616Z,47.66
2017-09-05T14:59:31.135Z,49.88
2017-09-05T15:01:57.617Z,50.01
2017-09-05T15:04:24.175Z,48.97
2017-09-05T15:06:50.591Z,49.62
2017-09-05T15:09:17.022Z,49.36
2017-09-05T15:11:43.462Z,50.80
2017-09-05T15:14:09.899Z,50.52
2017-09-05T15:16:36.226Z,47.46
2017-09-05T15:19:10.384Z,45.05
2017-09-05T15:21:36.979Z,44.06
2017-09-05T15:24:03.391Z,41.05
2017-09-05T15:26:29.734Z,39.85
2017-09-05T15:28:56.111Z,42.33
2017-09-05T15:31:22.439Z,43.77
2017-09-05T15:33:48.759Z,45.60
2017-09-05T15:36:15.115Z,43.09
2017-09-05T15:38:41.426Z,42.86
2017-09-05T15:41:07.767Z,44.47
2017-09-05T15:43:34.121Z,44.70
2017-09-05T15:46:00.555Z,43.28
2017-09-05T15:48:27.009Z,42.61
2017-09-05T15:50:53.644Z,43.42
2017-09-05T15:53:20.115Z,44.45
2017-09-05T15:55:46.522Z,45.25
2017-09-05T15:58:12.992Z,45.15
2017-09-05T16:00:45.781Z,46.39
2017-09-05T16:03:12.166Z,46.81
2017-09-05T16:05:45.080Z,48.76
2017-09-05T16:08:12.102Z,50.43
2017-09-05T16:10:38.443Z,51.07
2017-09-05T16:13:05.072Z,51.45
2017-09-05T16:15:31.551Z,51.83
2017-09-05T16:17:57.972Z,52.87
2017-09-05T16:20:24.295Z,53.61
2017-09-05T16:22:50.639Z,56.60
2017-09-05T16:25:17.112Z,56.47
2017-09-05T16:27:43.475Z,59.41
2017-09-05T16:30:09.920Z,59.98
2017-09-05T16:32:36.337Z,60.16
2017-09-05T16:35:02.771Z,61.86
2017-09-05T16:37:29.191Z,63.59
2017-09-05T16:39:55.525Z,63.36
2017-09-05T16:42:25.251Z,63.25
2017-09-05T16:44:51.856Z,66.57
2017-09-05T16:47:18.205Z,60.94
2017-09-05T16:49:45.583Z,59.19
2017-09-05T16:52:11.930Z,61.33
2017-09-05T16:54:38.363Z,61.64
2017-09-05T16:57:04.697Z,68.76
2017-09-05T16:59:31.135Z,68.07
2017-09-05T17:01:57.755Z,69.87
2017-09-05T17:04:24.115Z,67.87
2017-09-05T17:06:50.659Z,68.39
2017-09-05T17:09:17.082Z,67.78
2017-09-05T17:11:43.507Z,68.19
2017-09-05T17:14:10.048Z,67.90
2017-09-05T17:16:36.460Z,69.84
2017-09-05T17:19:02.851Z,72.93
2017-09-05T17:21:29.303Z,72.52
2017-09-05T17:24:01.857Z,70.45
2017-09-05T17:26:28.317Z,70.21
2017-09-05T17:28:54.747Z,75.01
2017-09-05T17:31:21.167Z,75.79
2017-09-05T17:33:47.555Z,71.17
2017-09-05T17:36:14.684Z,72.89
2017-09-05T17:38:41.089Z,76.42
2017-09-05T17:41:07.430Z,73.37
2017-09-05T17:43:33.771Z,77.56
2017-09-05T17:46:00.130Z,76.05
2017-09-05T17:48:26.563Z,74.63
2017-09-05T17:50:52.967Z,78.51
2017-09-05T17:53:19.379Z,81.33
2017-09-05T17:55:45.771Z,76.13
2017-09-05T17:58:12.236Z,78.29
2017-09-05T18:00:38.566Z,75.82
2017-09-05T18:03:05.032Z,76.10
2017-09-05T18:05:39.014Z,78.04
2017-09-05T18:08:05.958Z,79.24
2017-09-05T18:10:33.087Z,79.95
2017-09-05T18:12:59.438Z,81.52
2017-09-05T18:15:25.914Z,81.41
2017-09-05T18:17:52.313Z,82.56
2017-09-05T18:20:18.844Z,82.85
2017-09-05T18:23:00.123Z,78.60
2017-09-05T18:25:26.587Z,83.89
2017-09-05T18:27:53.024Z,84.33
2017-09-05T18:30:19.462Z,84.61
2017-09-05T18:32:45.888Z,82.09
2017-09-05T18:35:12.339Z,84.74
2017-09-05T18:37:38.788Z,85.33
2017-09-05T18:40:05.205Z,86.76
2017-09-05T18:42:38.538Z,81.78
2017-09-05T18:45:10.945Z,80.24
2017-09-05T18:47:37.770Z,80.81
2017-09-05T18:50:04.163Z,82.80
2017-09-05T18:52:32.514Z,81.10
2017-09-05T18:54:58.930Z,83.97
2017-09-05T18:57:25.403Z,79.69
2017-09-05T18:59:51.766Z,83.99
2017-09-05T19:02:18.234Z,84.74
2017-09-05T19:04:44.634Z,81.62
2017-09-05T19:07:11.146Z,81.54
2017-09-05T19:09:43.744Z,80.82
2017-09-05T19:12:10.117Z,82.84
2017-09-05T19:14:36.600Z,80.10
2017-09-05T19:17:03.131Z,81.93
2017-09-05T19:19:29.539Z,83.78
2017-09-05T19:21:55.859Z,81.37
2017-09-05T19:24:22.200Z,80.63
2017-09-05T19:26:48.675Z,81.00
2017-09-05T19:29:15.087Z,84.65
2017-09-05T19:31:41.491Z,84.90
2017-09-05T19:34:07.873Z,83.19
2017-09-05T19:36:34.296Z,82.15
2017-09-05T19:39:00.721Z,85.56
2017-09-05T19:44:02.052Z,82.08
2017-09-05T19:46:28.451Z,81.79
2017-09-05T19:48:54.814Z,81.49
2017-09-05T19:51:21.210Z,83.76
2017-09-05T19:53:47.540Z,85.06
2017-09-05T19:56:14.032Z,81.27
2017-09-05T19:58:40.422Z,83.63
2017-09-05T20:01:07.059Z,82.84
2017-09-05T20:03:33.450Z,83.57
2017-09-05T20:05:59.839Z,82.57
2017-09-05T20:08:27.237Z,84.70
2017-09-05T20:10:53.642Z,85.67
2017-09-05T20:13:20.103Z,84.62
2017-09-05T20:15:46.535Z,85.50
2017-09-05T20:18:12.995Z,84.46
2017-09-05T20:20:39.397Z,83.89
2017-09-05T20:23:05.819Z,83.29
2017-09-05T20:25:32.366Z,84.79
2017-09-05T20:27:58.869Z,84.91
2017-09-05T20:30:25.257Z,84.22
2017-09-05T20:32:59.294Z,82.60
2017-09-05T20:35:25.749Z,83.14
2017-09-05T20:37:53.283Z,83.66
2017-09-05T20:40:19.744Z,85.22
2017-09-05T20:42:47.021Z,83.44
2017-09-05T20:45:13.473Z,84.12
2017-09-05T20:47:39.859Z,83.06
2017-09-05T20:50:06.216Z,83.23
2017-09-05T20:52:32.746Z,83.28
2017-09-05T20:54:59.382Z,83.00
2017-09-05T20:57:26.433Z,83.23
2017-09-05T20:59:53.099Z,82.72
2017-09-05T21:02:19.698Z,82.62
2017-09-05T21:04:46.601Z,82.76
2017-09-05T21:07:13.055Z,83.20
2017-09-05T21:09:39.808Z,82.61
2017-09-05T21:12:06.595Z,83.40
2017-09-05T21:14:32.928Z,84.13
2017-09-05T21:17:01.365Z,83.15
2017-09-05T21:19:27.871Z,83.01
2017-09-05T21:21:54.410Z,82.67
2017-09-05T21:24:20.830Z,82.28
2017-09-05T21:26:47.508Z,82.75
2017-09-05T21:29:14.056Z,82.96
2017-09-05T21:31:40.818Z,82.14
2017-09-05T21:34:07.602Z,82.61
2017-09-05T21:36:34.067Z,83.61
2017-09-05T21:39:00.490Z,83.43
2017-09-05T21:41:26.847Z,82.50
2017-09-05T21:43:53.557Z,82.41
2017-09-05T21:46:20.406Z,82.38
2017-09-05T21:48:46.902Z,82.98
2017-09-05T21:51:13.331Z,82.42
2017-09-05T21:53:39.921Z,82.80
2017-09-05T21:56:10.973Z,82.65
2017-09-05T21:58:44.097Z,82.80
2017-09-05T22:01:10.819Z,82.49
2017-09-05T22:03:37.207Z,82.61
2017-09-05T22:06:03.676Z,82.63
2017-09-05T22:08:30.743Z,82.48
2017-09-05T22:10:57.211Z,82.39
2017-09-05T22:13:23.927Z,83.36
2017-09-05T22:15:50.469Z,83.00
2017-09-05T22:18:29.176Z,83.77
2017-09-05T22:21:02.696Z,84.24
2017-09-05T22:23:29.134Z,83.55
2017-09-05T22:26:01.528Z,84.06
2017-09-05T22:28:34.039Z,84.11
2017-09-05T22:31:00.391Z,83.83
2017-09-05T22:33:26.826Z,84.49
2017-09-05T22:35:53.354Z,83.92
2017-09-05T22:38:24.195Z,84.43
2017-09-05T22:40:50.581Z,84.54
2017-09-05T22:43:17.146Z,83.95
2017-09-05T22:45:43.611Z,84.41
2017-09-05T22:48:10.018Z,83.81
2017-09-05T22:50:36.534Z,84.25
2017-09-05T22:53:02.912Z,85.26
2017-09-05T22:55:29.286Z,86.09
2017-09-05T22:57:55.666Z,86.28
2017-09-05T23:00:28.191Z,86.04
2017-09-05T23:02:55.082Z,85.37
2017-09-05T23:05:21.462Z,84.78
2017-09-05T23:07:47.867Z,85.13
2017-09-05T23:10:14.248Z,85.78
2017-09-05T23:12:40.659Z,84.59
2017-09-05T23:15:07.019Z,84.82
2017-09-05T23:17:34.159Z,84.34
2017-09-05T23:20:00.487Z,84.03
2017-09-05T23:22:26.834Z,83.68
2017-09-05T23:24:53.246Z,83.40
2017-09-05T23:27:19.714Z,84.35
2017-09-05T23:29:46.170Z,83.95
2017-09-05T23:32:12.579Z,84.02
2017-09-05T23:34:39.011Z,84.31
2017-09-05T23:37:05.339Z,84.67
2017-09-05T23:39:31.706Z,84.64
2017-09-05T23:41:58.058Z,84.49
2017-09-05T23:44:24.477Z,84.97
2017-09-05T23:46:50.939Z,84.60
2017-09-05T23:49:17.323Z,84.69
2017-09-05T23:51:43.697Z,85.13
2017-09-05T23:54:10.319Z,85.68
2017-09-05T23:56:36.774Z,85.36
2017-09-05T23:59:03.215Z,85.51
